createdAt,value
2019-04-27T00:01:48.301Z,81.80
2019-04-27T00:06:08.246Z,82.20
2019-04-27T00:10:35.661Z,82.50
2019-04-27T00:14:48.441Z,83.00
2019-04-27T00:19:13.233Z,83.30
2019-04-27T00:23:23.747Z,83.00
2019-04-27T00:27:33.526Z,83.40
2019-04-27T00:31:43.521Z,83.70
2019-04-27T00:35:57.547Z,83.80
2019-04-27T00:40:16.069Z,84.10
2019-04-27T00:44:24.855Z,83.90
2019-04-27T00:48:34.086Z,84.30
2019-04-27T00:52:43.106Z,84.40
2019-04-27T00:57:20.510Z,84.60
2019-04-27T01:01:33.356Z,84.60
2019-04-27T01:05:43.079Z,84.90
2019-04-27T01:09:52.807Z,85.00
2019-04-27T01:14:01.767Z,85.10
2019-04-27T01:18:14.946Z,85.20
2019-04-27T01:22:21.366Z,85.50
2019-04-27T01:27:01.442Z,85.50
2019-04-27T01:31:11.833Z,85.50
2019-04-27T01:35:20.980Z,85.70
2019-04-27T01:39:29.838Z,86.20
2019-04-27T01:43:38.858Z,86.70
2019-04-27T01:47:49.256Z,87.00
2019-04-27T01:51:59.455Z,86.60
2019-04-27T01:56:09.208Z,88.40
2019-04-27T02:00:46.710Z,88.30
2019-04-27T02:05:13.333Z,87.60
2019-04-27T02:09:24.314Z,87.00
2019-04-27T02:13:33.223Z,86.70
2019-04-27T02:17:42.047Z,87.00
2019-04-27T02:21:51.568Z,88.50
2019-04-27T02:26:00.805Z,88.40
2019-04-27T02:30:24.098Z,88.20
2019-04-27T02:34:39.743Z,88.90
2019-04-27T02:38:49.165Z,89.80
2019-04-27T02:42:59.853Z,90.10
2019-04-27T02:47:10.439Z,90.20
2019-04-27T02:51:26.872Z,90.30
2019-04-27T02:55:35.655Z,90.00
2019-04-27T02:59:44.439Z,89.60
2019-04-27T03:03:53.896Z,88.00
2019-04-27T03:08:02.821Z,88.70
2019-04-27T03:12:13.107Z,88.10
2019-04-27T03:16:39.278Z,88.80
2019-04-27T03:21:13.017Z,87.60
2019-04-27T03:25:40.399Z,87.40
2019-04-27T03:29:50.023Z,88.10
2019-04-27T03:34:04.808Z,89.30
2019-04-27T03:38:10.384Z,89.50
2019-04-27T03:42:20.875Z,89.70
2019-04-27T03:46:30.335Z,89.30
2019-04-27T03:50:50.663Z,88.60
2019-04-27T03:55:05.960Z,87.70
2019-04-27T03:59:22.225Z,87.00
2019-04-27T04:03:31.335Z,86.50
2019-04-27T04:07:40.907Z,86.30
2019-04-27T04:12:12.387Z,86.30
2019-04-27T04:16:35.681Z,86.20
2019-04-27T04:20:44.845Z,86.70
2019-04-27T04:24:53.650Z,86.60
2019-04-27T04:29:02.503Z,86.90
2019-04-27T04:33:11.266Z,87.60
2019-04-27T04:37:20.502Z,87.70
2019-04-27T04:41:50.925Z,87.50
2019-04-27T04:46:19.125Z,87.30
2019-04-27T04:50:27.382Z,87.20
2019-04-27T04:54:36.607Z,86.80
2019-04-27T04:58:45.555Z,86.60
2019-04-27T05:02:54.366Z,86.70
2019-04-27T05:07:03.599Z,87.00
2019-04-27T05:11:12.390Z,87.00
2019-04-27T05:15:21.280Z,86.90
2019-04-27T05:19:31.065Z,86.80
2019-04-27T05:23:40.161Z,86.70
2019-04-27T05:27:49.338Z,87.20
2019-04-27T05:31:59.247Z,87.00
2019-04-27T05:36:09.175Z,87.30
2019-04-27T05:40:18.916Z,87.20
2019-04-27T05:44:56.162Z,87.10
2019-04-27T05:49:07.805Z,87.70
2019-04-27T05:53:18.929Z,86.70
2019-04-27T05:57:30.996Z,87.70
2019-04-27T06:01:39.277Z,87.90
2019-04-27T06:05:48.942Z,87.50
2019-04-27T06:09:59.545Z,87.60
2019-04-27T06:14:09.721Z,87.70
2019-04-27T06:18:19.044Z,87.90
2019-04-27T06:22:29.555Z,88.10
2019-04-27T06:26:39.913Z,86.60
2019-04-27T06:30:49.256Z,86.70
2019-04-27T06:34:58.965Z,86.80
2019-04-27T06:39:09.773Z,86.90
2019-04-27T06:43:19.007Z,87.00
2019-04-27T06:47:29.455Z,87.30
2019-04-27T06:51:40.010Z,87.60
2019-04-27T06:55:49.747Z,88.00
2019-04-27T06:59:59.140Z,88.30
2019-04-27T07:04:08.881Z,88.20
2019-04-27T07:08:18.756Z,88.20
2019-04-27T07:12:28.805Z,88.50
2019-04-27T07:16:39.199Z,87.40
2019-04-27T07:20:48.534Z,86.30
2019-04-27T07:24:59.002Z,85.10
2019-04-27T07:29:09.640Z,83.90
2019-04-27T07:33:18.718Z,82.70
2019-04-27T07:37:29.270Z,80.90
2019-04-27T07:41:38.773Z,79.60
2019-04-27T07:45:49.386Z,79.50
2019-04-27T07:49:59.581Z,78.70
2019-04-27T07:54:09.052Z,77.70
2019-04-27T07:58:20.534Z,78.00
2019-04-27T08:02:29.092Z,75.90
2019-04-27T08:06:38.737Z,74.40
2019-04-27T08:10:50.165Z,71.60
2019-04-27T08:15:00.041Z,71.50
2019-04-27T08:19:09.875Z,69.70
2019-04-27T08:23:19.606Z,70.70
2019-04-27T08:27:41.346Z,71.10
2019-04-27T08:31:54.756Z,72.90
2019-04-27T08:36:03.624Z,74.10
2019-04-27T08:40:12.677Z,74.30
2019-04-27T08:44:21.722Z,73.90
2019-04-27T08:48:36.005Z,74.20
2019-04-27T08:52:41.954Z,75.00
2019-04-27T08:56:51.669Z,74.40
2019-04-27T09:01:00.473Z,73.80
2019-04-27T09:05:09.775Z,75.40
2019-04-27T09:09:34.898Z,77.40
2019-04-27T09:13:50.992Z,75.30
2019-04-27T09:18:05.512Z,75.60
2019-04-27T09:22:16.525Z,74.30
2019-04-27T09:26:26.461Z,75.10
2019-04-27T09:30:35.742Z,74.80
2019-04-27T09:34:44.538Z,74.90
2019-04-27T09:38:53.342Z,74.40
2019-04-27T09:43:02.518Z,72.70
2019-04-27T09:47:11.422Z,68.60
2019-04-27T09:51:20.378Z,68.20
2019-04-27T09:55:29.191Z,68.80
2019-04-27T09:59:39.764Z,70.00
2019-04-27T10:03:49.342Z,67.30
2019-04-27T10:07:58.475Z,67.60
2019-04-27T10:12:07.816Z,67.20
2019-04-27T10:16:16.695Z,66.10
2019-04-27T10:20:25.512Z,67.60
2019-04-27T10:24:42.176Z,67.20
2019-04-27T10:28:59.195Z,67.20
2019-04-27T10:33:08.311Z,67.00
2019-04-27T10:37:17.211Z,66.50
2019-04-27T10:41:26.066Z,66.70
2019-04-27T10:45:35.769Z,66.80
2019-04-27T10:49:48.043Z,65.80
2019-04-27T10:53:56.126Z,64.30
2019-04-27T10:58:05.381Z,62.70
2019-04-27T11:02:14.209Z,62.90
2019-04-27T11:06:40.798Z,62.20
2019-04-27T11:10:49.769Z,63.00
2019-04-27T11:14:58.943Z,61.50
2019-04-27T11:19:08.356Z,61.20
2019-04-27T11:23:17.151Z,62.30
2019-04-27T11:27:25.999Z,63.50
2019-04-27T11:31:36.357Z,61.20
2019-04-27T11:36:10.467Z,59.00
2019-04-27T11:40:21.520Z,57.50
2019-04-27T11:44:30.362Z,59.50
2019-04-27T11:48:39.121Z,60.50
2019-04-27T11:52:48.570Z,61.10
2019-04-27T11:56:57.471Z,65.00
2019-04-27T12:01:06.790Z,64.40
2019-04-27T12:05:17.121Z,61.90
2019-04-27T12:09:26.021Z,60.00
2019-04-27T12:13:35.946Z,58.60
2019-04-27T12:17:46.092Z,61.20
2019-04-27T12:21:56.501Z,59.70
2019-04-27T12:26:06.015Z,58.70
2019-04-27T12:30:26.152Z,58.30
2019-04-27T12:34:36.148Z,58.50
2019-04-27T12:38:46.687Z,60.30
2019-04-27T12:42:55.749Z,58.30
2019-04-27T12:47:06.308Z,58.40
2019-04-27T12:51:15.594Z,57.70
2019-04-27T12:55:42.385Z,56.60
2019-04-27T13:00:13.929Z,56.40
2019-04-27T13:04:22.762Z,56.30
2019-04-27T13:08:31.646Z,57.20
2019-04-27T13:12:40.612Z,57.90
2019-04-27T13:16:49.432Z,58.00
2019-04-27T13:20:58.318Z,57.60
2019-04-27T13:25:09.038Z,56.10
2019-04-27T13:29:17.899Z,54.50
2019-04-27T13:33:27.039Z,52.90
2019-04-27T13:37:40.545Z,52.20
2019-04-27T13:41:49.729Z,51.60
2019-04-27T13:46:23.517Z,50.30
2019-04-27T13:50:38.865Z,48.30
2019-04-27T13:54:47.855Z,47.00
2019-04-27T13:58:58.356Z,49.00
2019-04-27T14:03:07.606Z,51.30
2019-04-27T14:07:16.672Z,53.50
2019-04-27T14:11:25.594Z,54.50
2019-04-27T14:15:34.546Z,55.30
2019-04-27T14:19:43.613Z,54.00
2019-04-27T14:23:52.410Z,53.20
2019-04-27T14:28:01.286Z,53.30
2019-04-27T14:32:10.426Z,51.80
2019-04-27T14:36:19.209Z,48.60
2019-04-27T14:40:28.832Z,48.10
2019-04-27T14:44:38.973Z,46.00
2019-04-27T14:48:48.074Z,45.80
2019-04-27T14:52:58.889Z,47.50
2019-04-27T14:57:09.106Z,45.80
2019-04-27T15:01:18.792Z,45.90
2019-04-27T15:05:29.192Z,46.40
2019-04-27T15:09:38.449Z,44.70
2019-04-27T15:13:48.697Z,46.40
2019-04-27T15:18:04.370Z,45.00
2019-04-27T15:22:19.243Z,46.30
2019-04-27T15:26:23.423Z,45.90
2019-04-27T15:30:48.722Z,46.90
2019-04-27T15:35:09.805Z,46.80
2019-04-27T15:39:30.567Z,46.40
2019-04-27T15:43:41.245Z,47.30
2019-04-27T15:47:54.344Z,49.60
2019-04-27T15:52:04.441Z,51.80
2019-04-27T15:56:12.450Z,51.50
2019-04-27T16:00:28.991Z,50.00
2019-04-27T16:04:39.858Z,49.90
2019-04-27T16:08:49.248Z,50.30
2019-04-27T16:13:06.703Z,51.00
2019-04-27T16:17:11.416Z,52.60
2019-04-27T16:21:20.222Z,53.00
2019-04-27T16:25:31.516Z,54.90
2019-04-27T16:29:39.959Z,56.70
2019-04-27T16:33:49.964Z,59.30
2019-04-27T16:38:38.794Z,58.50
2019-04-27T16:42:50.645Z,61.40
2019-04-27T16:46:59.239Z,62.00
2019-04-27T16:51:08.687Z,60.80
2019-04-27T16:55:19.927Z,61.60
2019-04-27T16:59:43.039Z,60.50
2019-04-27T17:03:41.392Z,60.40
2019-04-27T17:07:50.615Z,59.20
2019-04-27T17:11:59.471Z,58.60
2019-04-27T17:16:39.008Z,59.20
2019-04-27T17:20:52.677Z,60.40
2019-04-27T17:25:01.373Z,62.80
2019-04-27T17:29:16.283Z,61.50
2019-04-27T17:33:31.729Z,61.20
2019-04-27T17:37:40.674Z,61.70
2019-04-27T17:41:52.861Z,62.80
2019-04-27T17:46:00.207Z,60.90
2019-04-27T17:50:09.449Z,57.80
2019-04-27T17:54:18.682Z,57.00
2019-04-27T17:58:28.642Z,57.20
2019-04-27T18:02:42.398Z,57.90
2019-04-27T18:06:49.014Z,58.40
2019-04-27T18:11:03.080Z,59.10
2019-04-27T18:15:10.528Z,60.10
2019-04-27T18:19:30.930Z,61.60
2019-04-27T18:23:41.426Z,64.80
2019-04-27T18:28:14.709Z,66.50
2019-04-27T18:32:18.387Z,67.80
2019-04-27T18:36:27.391Z,68.80
2019-04-27T18:40:38.447Z,69.80
2019-04-27T18:44:48.609Z,70.70
2019-04-27T18:49:22.616Z,71.00
2019-04-27T18:53:32.178Z,71.50
2019-04-27T18:57:41.072Z,69.70
2019-04-27T19:01:50.271Z,69.60
2019-04-27T19:05:59.599Z,70.50
2019-04-27T19:10:09.168Z,70.50
2019-04-27T19:14:18.945Z,71.40
2019-04-27T19:18:28.368Z,72.50
2019-04-27T19:22:38.649Z,73.60
2019-04-27T19:27:16.143Z,74.60
2019-04-27T19:31:23.785Z,75.40
2019-04-27T19:35:33.056Z,76.10
2019-04-27T19:39:41.977Z,76.70
2019-04-27T19:43:51.145Z,76.90
2019-04-27T19:48:00.526Z,77.10
2019-04-27T19:52:09.738Z,77.60
2019-04-27T19:56:19.312Z,78.00
2019-04-27T20:00:39.807Z,78.40
2019-04-27T20:04:54.505Z,78.80
2019-04-27T20:09:11.267Z,79.10
2019-04-27T20:13:21.999Z,79.20
2019-04-27T20:17:32.001Z,79.30
2019-04-27T20:21:40.929Z,79.10
2019-04-27T20:25:50.588Z,79.50
2019-04-27T20:30:00.697Z,78.40
2019-04-27T20:34:10.686Z,78.30
2019-04-27T20:38:21.427Z,78.00
2019-04-27T20:42:31.462Z,77.80
2019-04-27T20:46:41.462Z,78.20
2019-04-27T20:50:51.296Z,78.30
2019-04-27T20:55:01.514Z,77.90
2019-04-27T20:59:10.888Z,77.70
2019-04-27T21:03:33.938Z,77.40
2019-04-27T21:07:46.731Z,77.20
2019-04-27T21:11:55.565Z,77.50
2019-04-27T21:16:04.644Z,77.10
2019-04-27T21:20:14.124Z,76.70
2019-04-27T21:24:23.163Z,76.20
2019-04-27T21:28:32.699Z,75.70
2019-04-27T21:32:41.578Z,75.60
2019-04-27T21:36:51.022Z,75.70
2019-04-27T21:41:00.482Z,75.70
2019-04-27T21:45:11.255Z,75.30
2019-04-27T21:49:22.083Z,75.20
2019-04-27T21:53:51.470Z,74.90
2019-04-27T21:58:01.481Z,75.20
2019-04-27T22:02:12.101Z,74.80
2019-04-27T22:06:21.319Z,74.40
2019-04-27T22:10:31.052Z,74.70
2019-04-27T22:14:40.095Z,73.70
2019-04-27T22:18:49.552Z,73.60
2019-04-27T22:23:01.651Z,72.90
2019-04-27T22:27:10.546Z,73.40
2019-04-27T22:31:21.035Z,73.20
2019-04-27T22:35:31.319Z,73.40
2019-04-27T22:39:50.939Z,73.30
2019-04-27T22:44:21.956Z,73.50
2019-04-27T22:48:32.850Z,73.90
2019-04-27T22:52:41.685Z,74.20
2019-04-27T22:56:51.565Z,74.20
2019-04-27T23:01:29.071Z,74.20
2019-04-27T23:05:38.067Z,74.30
2019-04-27T23:09:47.742Z,74.50
2019-04-27T23:13:56.640Z,74.80
2019-04-27T23:18:05.744Z,74.90
2019-04-27T23:22:14.612Z,74.50
2019-04-27T23:26:23.477Z,74.20
2019-04-27T23:30:48.426Z,74.10
2019-04-27T23:34:57.356Z,74.80
2019-04-27T23:39:07.580Z,74.50
2019-04-27T23:43:16.510Z,74.00
2019-04-27T23:47:25.455Z,73.70
2019-04-27T23:51:46.467Z,73.50
2019-04-27T23:55:58.255Z,73.60
